Time;durP1;ratioP1;P1;durP2;ratioP2;P2;SDS_P1;SDS_P2;PMS_P1;PMS_P2;Temp;Humidity;BMP_temperature;BMP_pressure;BME280_temperature;BME280_humidity;BME280_pressure;Samples;Min_cycle;Max_cycle;Signal;HPM_P1;HPM_P2
2022/10/27 00:00:47;;;;;;;11.07;5.72;;;13.90;99.90;;;;;;5151845;27;20103;-64
2022/10/27 00:03:14;;;;;;;11.45;6.20;;;13.90;99.90;;;;;;5151204;27;20084;-64
2022/10/27 00:05:40;;;;;;;8.93;5.38;;;13.90;99.90;;;;;;5151386;27;20393;-64
2022/10/27 00:08:06;;;;;;;10.75;5.78;;;14.00;99.90;;;;;;5141452;27;20079;-64
2022/10/27 00:10:31;;;;;;;10.43;5.45;;;14.00;99.90;;;;;;5151884;27;20521;-64
2022/10/27 00:12:57;;;;;;;10.20;5.95;;;14.10;99.90;;;;;;5150965;27;20043;-65
2022/10/27 00:15:22;;;;;;;10.00;5.50;;;14.10;99.90;;;;;;5151617;27;20039;-64
2022/10/27 00:17:48;;;;;;;10.45;6.03;;;14.00;99.90;;;;;;5140423;27;20126;-65
2022/10/27 00:20:14;;;;;;;9.23;5.32;;;14.00;99.90;;;;;;5149391;27;20086;-63
2022/10/27 00:22:40;;;;;;;11.73;5.97;;;14.00;99.90;;;;;;5151225;27;20030;-64
2022/10/27 00:25:05;;;;;;;14.55;5.72;;;14.00;99.90;;;;;;5151364;27;20412;-63
2022/10/27 00:27:31;;;;;;;10.38;5.75;;;14.00;99.90;;;;;;5145574;27;20050;-64
2022/10/27 00:29:57;;;;;;;16.73;6.57;;;14.00;99.90;;;;;;5143636;27;20046;-64
2022/10/27 00:32:22;;;;;;;9.02;5.57;;;14.00;99.90;;;;;;5155387;27;20030;-64
2022/10/27 00:34:48;;;;;;;12.07;5.90;;;14.00;99.90;;;;;;5155681;27;20582;-64
2022/10/27 00:37:14;;;;;;;13.75;6.38;;;13.90;99.90;;;;;;5154121;27;20057;-63
2022/10/27 00:39:39;;;;;;;8.63;5.60;;;14.00;99.90;;;;;;5128664;27;20443;-63
2022/10/27 00:42:05;;;;;;;10.27;5.93;;;13.90;99.90;;;;;;5155134;27;20046;-64
2022/10/27 00:44:40;;;;;;;12.80;6.30;;;13.90;99.90;;;;;;5154937;27;20030;-64
2022/10/27 00:47:08;;;;;;;8.93;5.95;;;13.90;99.90;;;;;;5155544;27;20034;-63
2022/10/27 00:49:51;;;;;;;11.88;6.38;;;14.00;99.90;;;;;;5152883;27;20049;-64
2022/10/27 00:52:29;;;;;;;9.02;6.18;;;14.00;99.90;;;;;;5136492;27;20046;-64
2022/10/27 00:54:57;;;;;;;12.73;5.88;;;14.00;99.90;;;;;;5127274;27;20053;-63
2022/10/27 00:57:24;;;;;;;10.15;5.53;;;14.00;99.90;;;;;;5151998;27;20395;-64
2022/10/27 00:59:50;;;;;;;10.32;6.10;;;14.10;99.90;;;;;;5153100;27;20035;-64
2022/10/27 01:02:16;;;;;;;11.90;5.75;;;14.00;99.90;;;;;;5154563;27;20067;-63
2022/10/27 01:04:53;;;;;;;11.00;5.88;;;14.10;99.90;;;;;;5154714;27;20034;-64
2022/10/27 01:07:20;;;;;;;11.82;6.35;;;14.10;99.90;;;;;;5153014;27;20347;-64
2022/10/27 01:09:46;;;;;;;13.60;5.80;;;14.20;99.90;;;;;;5114921;27;20038;-63
2022/10/27 01:12:12;;;;;;;14.25;5.72;;;14.20;99.90;;;;;;5135310;27;20053;-63
2022/10/27 01:14:37;;;;;;;9.75;5.85;;;14.30;99.90;;;;;;5154838;27;20043;-65
2022/10/27 01:17:47;;;;;;;10.80;5.80;;;14.30;99.90;;;;;;5154568;27;20043;-64
2022/10/27 01:20:39;;;;;;;12.10;5.82;;;14.30;99.90;;;;;;5078187;27;20035;-63
2022/10/27 01:23:08;;;;;;;10.70;5.68;;;14.40;99.90;;;;;;5135601;27;20054;-64
2022/10/27 01:25:50;;;;;;;12.15;6.00;;;14.40;99.90;;;;;;5147149;27;20047;-63
2022/10/27 01:28:35;;;;;;;9.25;5.35;;;14.50;99.90;;;;;;5133435;27;20043;-63
2022/10/27 01:31:09;;;;;;;8.52;5.50;;;14.50;99.90;;;;;;5154239;27;20051;-64
2022/10/27 01:33:50;;;;;;;13.10;5.53;;;14.50;99.90;;;;;;5135279;27;20057;-64
2022/10/27 01:36:29;;;;;;;11.15;6.38;;;14.60;99.90;;;;;;5154261;27;20064;-63
2022/10/27 01:39:15;;;;;;;10.50;5.53;;;14.60;99.90;;;;;;5126612;27;20077;-63
2022/10/27 01:41:47;;;;;;;13.05;6.25;;;14.60;99.90;;;;;;5135074;27;20035;-65
2022/10/27 01:44:22;;;;;;;10.55;5.85;;;14.60;99.90;;;;;;5154066;27;20035;-64
2022/10/27 01:46:49;;;;;;;10.77;5.93;;;14.50;99.90;;;;;;5154281;27;20034;-65
2022/10/27 01:49:14;;;;;;;10.82;6.00;;;14.50;99.90;;;;;;5137951;27;20087;-63
2022/10/27 01:51:40;;;;;;;11.88;5.78;;;14.50;99.90;;;;;;5153728;27;20040;-63
2022/10/27 01:54:06;;;;;;;11.93;5.72;;;14.40;99.90;;;;;;5153589;27;20175;-63
2022/10/27 01:56:49;;;;;;;11.82;5.97;;;14.40;99.90;;;;;;5154044;27;20042;-64
2022/10/27 01:59:46;;;;;;;14.23;5.88;;;14.40;99.90;;;;;;5149243;27;20100;-63
2022/10/27 02:02:31;;;;;;;11.68;5.50;;;14.40;99.90;;;;;;5135108;27;20462;-64
2022/10/27 02:05:06;;;;;;;9.98;5.80;;;14.40;99.90;;;;;;5153854;27;20080;-65
2022/10/27 02:07:34;;;;;;;;;;;14.40;99.90;;;;;;5131458;27;20134;-63
2022/10/27 02:10:08;;;;;;;10.07;5.47;;;14.30;99.90;;;;;;5150956;27;19930;-63
2022/10/27 02:12:38;;;;;;;12.88;5.95;;;14.30;99.90;;;;;;5152898;27;20046;-63
2022/10/27 02:15:11;;;;;;;11.05;5.93;;;14.30;99.90;;;;;;5138602;27;20530;-63
2022/10/27 02:17:39;;;;;;;13.63;6.32;;;14.30;99.90;;;;;;5147965;27;20131;-63
2022/10/27 02:20:10;;;;;;;9.45;5.68;;;14.30;99.90;;;;;;5148861;27;20062;-63
2022/10/27 02:22:37;;;;;;;10.35;5.90;;;14.30;99.90;;;;;;5152951;27;20039;-63
2022/10/27 02:25:04;;;;;;;13.13;6.32;;;14.20;99.90;;;;;;5136182;27;20047;-63
2022/10/27 02:27:47;;;;;;;13.27;6.10;;;14.20;99.90;;;;;;5112870;27;20039;-64
2022/10/27 02:30:13;;;;;;;11.65;5.93;;;14.10;99.90;;;;;;5147424;27;20447;-63
2022/10/27 02:32:39;;;;;;;10.88;6.32;;;14.10;99.90;;;;;;5153015;27;20039;-63
2022/10/27 02:35:06;;;;;;;10.90;6.35;;;14.10;99.90;;;;;;5152958;27;20098;-62
2022/10/27 02:37:38;;;;;;;13.30;6.70;;;14.10;99.90;;;;;;5148489;27;20498;-63
2022/10/27 02:40:05;;;;;;;13.25;6.55;;;14.10;99.90;;;;;;5132507;27;20041;-62
2022/10/27 02:42:30;;;;;;;15.20;6.93;;;14.00;99.90;;;;;;5152118;27;20084;-63
2022/10/27 02:44:56;;;;;;;15.60;6.85;;;14.00;99.90;;;;;;5152910;27;20041;-62
2022/10/27 02:47:22;;;;;;;11.65;7.15;;;14.00;99.90;;;;;;5151848;27;20094;-63
2022/10/27 02:49:47;;;;;;;12.30;7.35;;;14.00;99.90;;;;;;5138294;27;20320;-63
2022/10/27 02:52:13;;;;;;;16.25;7.90;;;14.00;99.90;;;;;;5151116;27;20046;-62
2022/10/27 02:54:40;;;;;;;14.88;7.25;;;13.90;99.90;;;;;;5152576;27;20035;-63
2022/10/27 02:57:06;;;;;;;13.90;7.72;;;13.90;99.90;;;;;;5152574;27;20035;-63
2022/10/27 02:59:32;;;;;;;14.40;8.05;;;13.80;99.90;;;;;;5148737;27;20088;-64
2022/10/27 03:01:58;;;;;;;15.55;8.35;;;13.80;99.90;;;;;;5152235;27;20042;-63
2022/10/27 03:04:23;;;;;;;14.85;8.15;;;13.70;99.90;;;;;;5152509;27;20110;-63
2022/10/27 03:06:49;;;;;;;12.70;8.00;;;13.70;99.90;;;;;;5152318;27;20454;-63
2022/10/27 03:09:14;;;;;;;15.30;7.75;;;13.70;99.90;;;;;;5145095;27;20042;-62
2022/10/27 03:11:40;;;;;;;12.07;7.18;;;13.70;99.90;;;;;;5151624;27;20058;-63
2022/10/27 03:14:06;;;;;;;13.50;8.32;;;13.70;99.90;;;;;;5151733;27;20339;-62
2022/10/27 03:16:31;;;;;;;16.10;8.15;;;13.60;99.90;;;;;;5152307;27;20041;-63
2022/10/27 03:18:57;;;;;;;14.00;8.13;;;13.60;99.90;;;;;;5141899;27;20103;-63
2022/10/27 03:21:22;;;;;;;13.70;8.80;;;13.60;99.90;;;;;;5151767;27;20035;-62
2022/10/27 03:23:48;;;;;;;14.00;8.27;;;13.60;99.90;;;;;;5152117;27;20431;-62
2022/10/27 03:26:14;;;;;;;14.30;8.27;;;13.50;99.90;;;;;;5151966;27;20529;-62
2022/10/27 03:28:39;;;;;;;12.85;8.80;;;13.50;99.90;;;;;;5138520;27;20122;-63
2022/10/27 03:31:05;;;;;;;17.80;8.68;;;13.50;99.90;;;;;;5152040;27;20126;-62
2022/10/27 03:33:31;;;;;;;12.25;8.75;;;13.50;99.90;;;;;;5151378;27;20046;-62
2022/10/27 03:35:58;;;;;;;11.95;8.80;;;13.50;99.90;;;;;;5152059;27;20073;-63
2022/10/27 03:38:23;;;;;;;11.30;8.60;;;13.40;99.90;;;;;;5134053;27;20108;-63
2022/10/27 03:40:49;;;;;;;16.67;8.93;;;13.40;99.90;;;;;;5141872;27;20034;-63
2022/10/27 03:43:15;;;;;;;12.02;8.68;;;13.40;99.90;;;;;;5139542;27;20089;-62
2022/10/27 03:45:40;;;;;;;14.70;8.85;;;13.40;99.90;;;;;;5133179;27;20415;-63
2022/10/27 03:48:12;;;;;;;20.17;9.52;;;13.40;99.90;;;;;;5144866;27;20057;-62
2022/10/27 03:50:38;;;;;;;12.52;8.80;;;13.30;99.90;;;;;;5144843;27;20046;-63
2022/10/27 03:53:05;;;;;;;12.80;8.68;;;13.40;99.90;;;;;;5151126;27;20045;-63
2022/10/27 03:55:31;;;;;;;12.07;9.13;;;13.40;99.90;;;;;;5151713;27;20034;-63
2022/10/27 03:57:57;;;;;;;12.38;9.13;;;13.40;99.90;;;;;;5148875;27;20045;-65
2022/10/27 04:00:23;;;;;;;14.40;9.23;;;13.40;99.90;;;;;;5151851;27;20505;-62
2022/10/27 04:02:53;;;;;;;18.77;9.82;;;13.40;99.90;;;;;;5151452;27;20035;-63
2022/10/27 04:05:18;;;;;;;15.15;9.10;;;13.40;99.90;;;;;;5151675;27;20070;-63
2022/10/27 04:07:45;;;;;;;14.85;9.43;;;13.40;99.90;;;;;;5145291;27;20075;-62
2022/10/27 04:10:11;;;;;;;13.20;9.18;;;13.40;99.90;;;;;;5104546;27;20049;-63
2022/10/27 04:12:36;;;;;;;14.10;9.57;;;13.40;99.90;;;;;;5150568;27;20125;-62
2022/10/27 04:15:02;;;;;;;15.93;9.35;;;13.30;99.90;;;;;;5151749;27;20087;-62
2022/10/27 04:17:28;;;;;;;12.18;8.90;;;13.40;99.90;;;;;;5150032;27;20143;-62
2022/10/27 04:19:53;;;;;;;12.27;8.90;;;13.40;99.90;;;;;;5143530;27;20078;-62
2022/10/27 04:22:19;;;;;;;12.98;8.77;;;13.40;99.90;;;;;;5151259;27;20099;-63
2022/10/27 04:24:44;;;;;;;14.15;10.00;;;13.40;99.90;;;;;;5151564;27;20366;-63
2022/10/27 04:27:10;;;;;;;14.48;9.02;;;13.40;99.90;;;;;;5151639;27;20039;-62
2022/10/27 04:29:35;;;;;;;14.95;9.00;;;13.40;99.90;;;;;;5138809;27;20163;-63
2022/10/27 04:32:01;;;;;;;14.52;8.90;;;13.40;99.90;;;;;;5150594;27;20037;-62
2022/10/27 04:34:27;;;;;;;12.32;9.15;;;13.40;99.90;;;;;;5151518;27;20050;-64
2022/10/27 04:36:54;;;;;;;14.88;9.25;;;13.40;99.90;;;;;;5136575;27;20146;-62
2022/10/27 04:39:20;;;;;;;15.23;9.02;;;13.40;99.90;;;;;;5126588;27;20279;-63
2022/10/27 04:41:45;;;;;;;15.32;9.77;;;13.40;99.90;;;;;;5150627;27;20110;-62
2022/10/27 04:44:11;;;;;;;15.75;9.50;;;13.40;99.90;;;;;;5151081;27;20073;-62
2022/10/27 04:46:37;;;;;;;17.10;9.07;;;13.40;99.90;;;;;;5132526;27;20341;-63
2022/10/27 04:49:03;;;;;;;12.90;8.88;;;13.40;99.90;;;;;;5123897;27;20050;-62
2022/10/27 04:51:29;;;;;;;16.05;9.95;;;13.50;99.90;;;;;;5138047;27;20105;-63
2022/10/27 04:53:54;;;;;;;11.75;8.10;;;13.40;99.90;;;;;;5151278;27;20526;-62
2022/10/27 04:56:20;;;;;;;15.50;9.20;;;13.40;99.90;;;;;;5132736;27;20051;-62
2022/10/27 04:58:45;;;;;;;15.40;9.77;;;13.50;99.90;;;;;;5110931;28;20043;-62
2022/10/27 05:01:12;;;;;;;12.65;9.23;;;13.50;99.90;;;;;;5093557;28;20039;-63
2022/10/27 05:03:38;;;;;;;16.55;10.02;;;13.50;99.90;;;;;;5109557;28;20028;-64
2022/10/27 05:06:04;;;;;;;14.88;9.75;;;13.50;99.90;;;;;;5111929;28;20092;-63
2022/10/27 05:08:30;;;;;;;13.45;9.45;;;13.50;99.90;;;;;;5128137;28;20066;-64
2022/10/27 05:10:56;;;;;;;15.80;10.57;;;13.50;99.90;;;;;;5129958;28;20082;-63
2022/10/27 05:13:22;;;;;;;14.48;9.88;;;13.50;99.90;;;;;;5129730;28;20059;-63
2022/10/27 05:15:47;;;;;;;14.00;10.60;;;13.50;99.90;;;;;;5125266;27;20088;-63
2022/10/27 05:18:13;;;;;;;14.63;10.25;;;13.50;99.90;;;;;;5126298;27;20119;-64
2022/10/27 05:20:39;;;;;;;13.20;9.93;;;13.60;99.90;;;;;;5128099;27;20027;-64
2022/10/27 05:23:04;;;;;;;14.15;9.85;;;13.60;99.90;;;;;;5127841;27;20160;-63
2022/10/27 05:25:30;;;;;;;14.18;9.25;;;13.60;99.90;;;;;;5116051;27;20036;-64
2022/10/27 05:28:07;;;;;;;12.63;9.27;;;13.50;99.90;;;;;;5122702;27;20090;-63
2022/10/27 05:30:32;;;;;;;12.25;10.07;;;13.50;99.90;;;;;;5131831;27;20069;-63
2022/10/27 05:32:58;;;;;;;13.43;10.07;;;13.50;99.90;;;;;;5102423;28;20083;-64
2022/10/27 05:35:24;;;;;;;16.17;10.32;;;13.50;99.90;;;;;;5131494;27;20035;-64
2022/10/27 05:37:49;;;;;;;16.42;9.90;;;13.50;99.90;;;;;;5134968;27;20496;-64
2022/10/27 05:40:15;;;;;;;12.93;9.68;;;13.50;99.90;;;;;;5113932;27;20031;-64
2022/10/27 05:42:49;;;;;;;14.75;9.68;;;13.50;99.90;;;;;;5118723;27;20035;-64
2022/10/27 05:45:14;;;;;;;12.73;9.98;;;13.50;99.90;;;;;;5113253;27;20094;-65
2022/10/27 05:47:40;;;;;;;12.10;9.60;;;13.50;99.90;;;;;;5128903;27;20367;-64
2022/10/27 05:50:06;;;;;;;14.35;9.40;;;13.50;99.90;;;;;;5112608;27;20081;-66
2022/10/27 05:52:31;;;;;;;11.95;9.27;;;13.50;99.90;;;;;;5118389;27;20035;-66
2022/10/27 05:54:57;;;;;;;14.55;9.30;;;13.50;99.90;;;;;;5131948;27;20043;-64
2022/10/27 05:57:22;;;;;;;15.00;9.85;;;13.50;99.90;;;;;;5133294;27;20053;-64
2022/10/27 05:59:48;;;;;;;14.95;9.70;;;13.50;99.90;;;;;;5131719;27;20050;-64
2022/10/27 06:02:14;;;;;;;12.77;9.00;;;13.40;99.90;;;;;;5123812;27;20027;-64
2022/10/27 06:04:40;;;;;;;13.77;8.98;;;13.50;99.90;;;;;;5132814;27;20031;-65
2022/10/27 06:07:05;;;;;;;15.30;9.73;;;13.50;99.90;;;;;;5133276;27;20031;-63
2022/10/27 06:09:31;;;;;;;13.38;9.40;;;13.50;99.90;;;;;;5131407;27;20444;-63
2022/10/27 06:11:57;;;;;;;11.52;8.82;;;13.50;99.90;;;;;;5132972;27;20083;-64
2022/10/27 06:14:22;;;;;;;13.20;8.90;;;13.50;99.90;;;;;;5132409;27;20852;-64
2022/10/27 06:16:48;;;;;;;12.88;9.10;;;13.50;99.90;;;;;;5132744;27;20321;-64
2022/10/27 06:19:13;;;;;;;12.20;8.48;;;13.50;99.90;;;;;;5129886;27;20126;-64
2022/10/27 06:21:39;;;;;;;10.20;8.48;;;13.50;99.90;;;;;;5132795;27;20058;-62
2022/10/27 06:24:05;;;;;;;15.77;8.90;;;13.50;99.90;;;;;;5132578;27;20071;-62
2022/10/27 06:26:30;;;;;;;12.60;8.40;;;13.50;99.90;;;;;;5119914;27;20031;-63
2022/10/27 06:28:56;;;;;;;11.80;8.05;;;13.50;99.90;;;;;;5113434;27;20097;-63
2022/10/27 06:31:21;;;;;;;16.35;8.48;;;13.50;99.90;;;;;;5111847;28;20039;-63
2022/10/27 06:33:47;;;;;;;15.38;8.82;;;13.60;99.90;;;;;;5111822;27;20408;-62
2022/10/27 06:36:13;;;;;;;16.60;8.57;;;13.60;99.90;;;;;;5092465;28;20321;-62
2022/10/27 06:38:39;;;;;;;13.30;7.97;;;13.60;99.90;;;;;;5097655;27;20075;-63
2022/10/27 06:41:04;;;;;;;15.95;8.25;;;13.60;99.90;;;;;;5112094;27;20036;-62
2022/10/27 06:43:30;;;;;;;14.30;7.38;;;13.60;99.90;;;;;;5112617;27;20522;-62
2022/10/27 06:45:56;;;;;;;14.50;8.15;;;13.60;99.90;;;;;;5118930;27;20419;-62
2022/10/27 06:48:21;;;;;;;10.02;6.88;;;13.60;99.90;;;;;;5114764;27;20043;-63
2022/10/27 06:50:47;;;;;;;9.98;7.25;;;13.70;99.90;;;;;;5112807;27;20152;-62
2022/10/27 06:53:12;;;;;;;10.45;6.85;;;13.70;99.90;;;;;;5116347;27;20040;-64
2022/10/27 06:55:38;;;;;;;14.70;7.47;;;13.70;99.90;;;;;;5111538;27;20039;-63
2022/10/27 06:58:03;;;;;;;11.43;6.57;;;13.70;99.90;;;;;;5119559;27;20122;-63
2022/10/27 07:00:29;;;;;;;10.38;7.10;;;13.70;99.90;;;;;;5132335;27;20038;-62
2022/10/27 07:02:55;;;;;;;11.77;7.30;;;13.70;99.90;;;;;;5132095;27;20436;-61
2022/10/27 07:05:20;;;;;;;9.65;6.75;;;13.80;99.90;;;;;;5131621;27;20043;-62
2022/10/27 07:07:50;;;;;;;10.70;6.55;;;13.80;99.90;;;;;;5109837;27;20496;-62
2022/10/27 07:10:17;;;;;;;11.88;6.60;;;13.80;99.90;;;;;;5131939;27;20403;-63
2022/10/27 07:12:56;;;;;;;13.65;7.13;;;13.80;99.90;;;;;;5131394;27;20357;-62
2022/10/27 07:15:27;;;;;;;14.52;7.68;;;13.90;99.90;;;;;;5122769;27;20051;-63
2022/10/27 07:17:57;;;;;;;11.63;6.75;;;13.90;99.90;;;;;;5130564;27;20106;-62
2022/10/27 07:20:23;;;;;;;14.15;7.07;;;14.00;99.90;;;;;;5122196;27;20301;-62
2022/10/27 07:22:48;;;;;;;12.32;7.45;;;14.00;99.90;;;;;;5131298;27;20356;-63
2022/10/27 07:25:14;;;;;;;10.98;6.68;;;14.00;99.90;;;;;;5131089;27;20039;-61
2022/10/27 07:27:39;;;;;;;11.80;7.65;;;14.10;99.90;;;;;;5130809;27;20096;-61
2022/10/27 07:30:06;;;;;;;10.65;7.20;;;14.10;99.90;;;;;;5131230;27;20035;-61
2022/10/27 07:32:31;;;;;;;12.98;7.20;;;14.10;99.90;;;;;;5131289;27;20245;-62
2022/10/27 07:34:57;;;;;;;13.15;7.88;;;14.10;99.90;;;;;;5130663;27;20051;-63
2022/10/27 07:37:22;;;;;;;12.05;7.40;;;14.20;99.90;;;;;;5132807;27;20614;-62
2022/10/27 07:39:48;;;;;;;12.90;7.70;;;14.30;99.90;;;;;;5130046;27;20035;-62
2022/10/27 07:42:14;;;;;;;14.15;7.15;;;14.30;99.90;;;;;;5137523;27;20031;-62
2022/10/27 07:44:40;;;;;;;19.90;7.22;;;14.30;99.90;;;;;;5122656;27;20455;-62
2022/10/27 07:47:06;;;;;;;12.82;7.18;;;14.40;99.90;;;;;;5131571;27;20125;-61
2022/10/27 07:49:31;;;;;;;10.10;7.18;;;14.40;99.90;;;;;;5115513;27;20028;-62
2022/10/27 07:51:57;;;;;;;12.25;6.88;;;14.40;99.90;;;;;;5116529;27;20096;-64
2022/10/27 07:54:22;;;;;;;11.02;6.93;;;14.50;99.90;;;;;;5130561;27;20035;-62
2022/10/27 07:56:48;;;;;;;13.80;6.90;;;14.60;99.90;;;;;;5130969;27;20038;-62
2022/10/27 07:59:13;;;;;;;9.80;6.65;;;14.70;99.90;;;;;;5118016;27;20180;-63
2022/10/27 08:01:39;;;;;;;12.68;7.05;;;14.80;99.90;;;;;;5130892;27;20051;-62
2022/10/27 08:04:05;;;;;;;12.93;6.90;;;14.80;99.90;;;;;;5130582;27;20035;-62
2022/10/27 08:06:30;;;;;;;10.05;6.30;;;14.90;99.90;;;;;;5130877;27;20566;-62
2022/10/27 08:08:56;;;;;;;11.25;6.72;;;15.00;99.90;;;;;;5130306;27;20042;-62
2022/10/27 08:11:22;;;;;;;13.27;6.25;;;15.00;99.90;;;;;;5130508;28;20460;-63
2022/10/27 08:13:48;;;;;;;11.95;6.93;;;15.00;99.90;;;;;;5130430;28;20040;-61
2022/10/27 08:16:14;;;;;;;11.45;6.57;;;15.00;99.90;;;;;;5130256;28;20047;-62
2022/10/27 08:18:39;;;;;;;12.40;6.45;;;15.10;99.90;;;;;;5129081;28;20035;-62
2022/10/27 08:21:05;;;;;;;11.85;6.55;;;15.10;99.90;;;;;;5130570;28;20073;-62
2022/10/27 08:23:31;;;;;;;14.73;6.50;;;15.10;99.90;;;;;;5130364;28;20075;-61
2022/10/27 08:25:56;;;;;;;12.63;6.50;;;15.10;99.90;;;;;;5130595;28;20364;-62
2022/10/27 08:28:23;;;;;;;13.50;6.68;;;15.10;99.90;;;;;;5127147;28;20059;-61
2022/10/27 08:30:51;;;;;;;13.00;6.60;;;15.10;99.90;;;;;;5130339;28;20067;-61
2022/10/27 08:33:17;;;;;;;11.90;6.45;;;15.20;99.90;;;;;;5130474;28;20057;-62
2022/10/27 08:35:42;;;;;;;11.30;6.28;;;15.20;99.90;;;;;;5129386;28;20039;-63
2022/10/27 08:38:15;;;;;;;17.23;7.28;;;15.40;99.90;;;;;;5130197;27;20032;-63
2022/10/27 08:41:09;;;;;;;9.85;6.25;;;15.50;99.90;;;;;;5140435;27;20459;-62
2022/10/27 08:43:44;;;;;;;11.13;6.70;;;15.60;99.90;;;;;;5151256;27;20325;-62
2022/10/27 08:46:29;;;;;;;10.15;6.15;;;15.70;99.90;;;;;;5150759;27;20035;-62
2022/10/27 08:49:00;;;;;;;10.07;6.15;;;15.70;99.90;;;;;;5129644;27;20040;-64
2022/10/27 08:51:28;;;;;;;9.20;5.30;;;15.80;99.90;;;;;;5147788;27;20067;-64
2022/10/27 08:53:54;;;;;;;10.80;6.90;;;16.00;99.90;;;;;;5134345;27;20042;-63
2022/10/27 08:56:23;;;;;;;10.82;5.88;;;16.10;99.90;;;;;;5153459;27;20034;-62
2022/10/27 08:58:49;;;;;;;9.48;5.43;;;16.10;99.90;;;;;;5135368;27;20104;-63
2022/10/27 09:01:34;;;;;;;11.13;5.47;;;16.20;99.90;;;;;;5147881;27;20030;-64
2022/10/27 09:04:05;;;;;;;9.25;5.38;;;16.40;99.90;;;;;;5154682;27;20031;-62
2022/10/27 09:06:40;;;;;;;11.77;5.57;;;16.50;99.90;;;;;;5154830;27;20125;-62
2022/10/27 09:09:17;;;;;;;10.00;5.43;;;16.60;99.90;;;;;;5141433;27;20339;-62
2022/10/27 09:12:02;;;;;;;11.60;5.57;;;16.60;99.90;;;;;;5152640;27;20030;-62
2022/10/27 09:15:13;;;;;;;11.32;5.13;;;16.70;99.90;;;;;;5084284;27;20455;-63
2022/10/27 09:17:55;;;;;;;13.07;5.95;;;16.80;99.90;;;;;;5136737;27;20122;-64
2022/10/27 09:20:45;;;;;;;9.63;5.03;;;16.70;99.90;;;;;;5154153;27;20045;-63
2022/10/27 09:23:16;;;;;;;9.95;4.97;;;16.80;99.90;;;;;;5135831;27;20046;-64
2022/10/27 09:25:44;;;;;;;7.70;4.30;;;16.80;99.90;;;;;;5153936;27;20443;-62
2022/10/27 09:28:44;;;;;;;10.70;5.38;;;16.80;99.90;;;;;;5146326;27;20054;-61
2022/10/27 09:31:20;;;;;;;11.07;4.32;;;17.00;99.90;;;;;;5112811;27;20046;-62
2022/10/27 09:33:58;;;;;;;9.73;4.78;;;17.10;99.90;;;;;;5154399;27;20043;-63
2022/10/27 09:36:23;;;;;;;12.48;5.32;;;17.10;99.90;;;;;;5154164;27;20046;-61
2022/10/27 09:38:49;;;;;;;10.95;4.18;;;17.20;99.90;;;;;;5134828;27;20042;-62
2022/10/27 09:41:15;;;;;;;8.05;4.50;;;17.30;99.90;;;;;;5138912;27;20619;-61
2022/10/27 09:43:40;;;;;;;8.43;4.28;;;17.40;99.90;;;;;;5113580;27;20052;-64
2022/10/27 09:46:17;;;;;;;8.30;4.47;;;17.50;99.90;;;;;;5132987;27;20443;-62
2022/10/27 09:48:43;;;;;;;9.90;4.05;;;17.60;99.90;;;;;;5129213;27;20043;-62
2022/10/27 09:51:23;;;;;;;7.10;4.00;;;17.70;99.90;;;;;;5107667;27;20046;-62
2022/10/27 09:53:51;;;;;;;10.68;4.30;;;17.80;99.90;;;;;;5129982;27;20058;-62
2022/10/27 09:56:29;;;;;;;7.35;3.22;;;17.90;99.90;;;;;;5133323;27;20034;-62
2022/10/27 09:59:01;;;;;;;6.38;3.42;;;18.00;99.90;;;;;;5096023;28;20458;-61
2022/10/27 10:01:42;;;;;;;8.35;3.20;;;18.10;99.90;;;;;;5130813;27;20027;-63
2022/10/27 10:04:30;;;;;;;8.90;3.17;;;18.30;99.90;;;;;;5132685;27;20143;-62
2022/10/27 10:07:05;;;;;;;7.00;2.88;;;18.50;99.90;;;;;;5130799;27;20121;-63
2022/10/27 10:09:34;;;;;;;6.30;3.13;;;18.60;99.90;;;;;;5114679;27;20035;-63
2022/10/27 10:12:19;;;;;;;9.63;3.50;;;18.70;99.90;;;;;;5135535;27;20043;-63
2022/10/27 10:14:45;;;;;;;;;;;18.70;99.90;;;;;;5132978;27;20071;-62
2022/10/27 10:17:38;;;;;;;6.95;3.42;;;18.70;99.90;;;;;;5132522;27;19984;-62
2022/10/27 10:20:06;;;;;;;8.43;3.03;;;18.70;99.90;;;;;;5091693;27;20649;-63
2022/10/27 10:22:34;;;;;;;7.90;3.15;;;18.70;99.90;;;;;;5114655;27;20053;-65
2022/10/27 10:25:36;;;;;;;7.35;3.10;;;18.70;99.90;;;;;;5079246;27;20086;-63
2022/10/27 10:28:04;;;;;;;7.13;3.03;;;18.70;99.90;;;;;;5106854;27;20051;-64
2022/10/27 10:30:38;;;;;;;6.90;2.67;;;18.70;99.90;;;;;;5132276;27;20053;-63
2022/10/27 10:33:05;;;;;;;9.77;3.08;;;18.70;99.90;;;;;;5114643;27;20035;-63
2022/10/27 10:35:50;;;;;;;7.25;2.90;;;18.70;99.90;;;;;;5131393;27;20062;-64
2022/10/27 10:38:36;;;;;;;5.25;2.67;;;18.70;99.90;;;;;;5131371;27;20075;-63
2022/10/27 10:41:30;;;;;;;8.32;3.03;;;18.90;99.90;;;;;;5131730;27;20042;-64
2022/10/27 10:44:14;;;;;;;5.05;2.83;;;18.90;99.90;;;;;;5112844;27;20490;-65
2022/10/27 10:46:55;;;;;;;7.00;3.07;;;18.90;99.90;;;;;;5121733;27;20487;-64
2022/10/27 10:49:34;;;;;;;8.38;2.95;;;18.90;99.90;;;;;;5122632;27;20284;-63
2022/10/27 10:52:03;;;;;;;8.93;3.35;;;18.90;99.90;;;;;;5132251;27;20099;-64
2022/10/27 10:54:35;;;;;;;5.70;2.45;;;18.90;99.90;;;;;;5131781;27;20095;-63
2022/10/27 10:57:02;;;;;;;7.15;2.88;;;18.90;99.90;;;;;;5132310;27;20098;-63
2022/10/27 10:59:30;;;;;;;9.85;2.70;;;18.90;99.90;;;;;;5120800;27;20455;-63
2022/10/27 11:02:09;;;;;;;6.53;2.80;;;19.00;99.90;;;;;;5112068;27;20101;-63
2022/10/27 11:04:43;;;;;;;6.25;2.65;;;18.90;99.90;;;;;;5131557;27;20031;-63
2022/10/27 11:07:30;;;;;;;4.72;2.40;;;18.90;99.90;;;;;;5131530;27;20035;-63
2022/10/27 11:10:07;;;;;;;8.38;2.40;;;18.80;99.90;;;;;;5119190;27;20039;-62
2022/10/27 11:12:35;;;;;;;7.22;2.45;;;18.80;99.90;;;;;;5130857;27;20069;-63
2022/10/27 11:15:12;;;;;;;7.07;2.53;;;18.80;99.90;;;;;;5131191;27;20035;-63
2022/10/27 11:17:39;;;;;;;7.15;2.13;;;18.80;99.90;;;;;;5112719;27;20430;-62
2022/10/27 11:20:12;;;;;;;5.63;2.15;;;18.80;99.90;;;;;;5114849;27;20035;-63
2022/10/27 11:22:39;;;;;;;6.72;2.40;;;18.80;99.90;;;;;;5104517;28;20070;-63
2022/10/27 11:25:15;;;;;;;5.10;2.28;;;18.80;99.90;;;;;;5127457;27;20114;-62
2022/10/27 11:27:56;;;;;;;6.88;2.53;;;18.80;99.90;;;;;;5131499;27;20035;-62
2022/10/27 11:30:26;;;;;;;6.85;1.95;;;18.90;99.90;;;;;;5129304;27;20041;-62
2022/10/27 11:33:20;;;;;;;5.10;2.20;;;18.90;99.90;;;;;;5131268;27;20038;-63
2022/10/27 11:36:03;;;;;;;7.80;2.25;;;18.90;99.90;;;;;;5129215;27;20115;-63
2022/10/27 11:38:50;;;;;;;5.88;2.15;;;18.90;99.90;;;;;;5130838;27;20054;-63
2022/10/27 11:41:30;;;;;;;7.45;2.35;;;19.00;99.90;;;;;;5151396;27;20031;-64
2022/10/27 11:44:25;;;;;;;5.60;2.30;;;19.00;99.90;;;;;;5151782;27;20038;-63
2022/10/27 11:47:29;;;;;;;6.18;2.10;;;19.00;99.90;;;;;;5130941;27;20149;-63
2022/10/27 11:50:04;;;;;;;4.57;2.00;;;19.00;99.90;;;;;;5099912;27;20047;-62
2022/10/27 11:52:39;;;;;;;6.15;2.10;;;19.10;99.90;;;;;;5145441;27;20054;-63
2022/10/27 11:55:07;;;;;;;4.38;1.90;;;19.10;99.90;;;;;;5151633;27;20192;-63
2022/10/27 11:58:04;;;;;;;6.20;2.15;;;19.10;99.90;;;;;;5151677;27;20070;-63
2022/10/27 12:00:57;;;;;;;5.53;2.05;;;19.10;99.90;;;;;;5121142;27;20061;-64
2022/10/27 12:03:29;;;;;;;4.07;1.85;;;19.10;99.90;;;;;;5115505;28;20717;-62
2022/10/27 12:06:08;;;;;;;7.75;2.10;;;19.10;99.90;;;;;;5144063;27;20034;-62
2022/10/27 12:08:47;;;;;;;7.75;2.22;;;19.10;99.90;;;;;;5111792;27;20067;-62
2022/10/27 12:11:45;;;;;;;4.68;2.13;;;19.10;99.90;;;;;;5140163;27;20046;-63
2022/10/27 12:14:22;;;;;;;5.63;2.20;;;19.10;99.90;;;;;;5151216;27;20118;-64
2022/10/27 12:17:00;;;;;;;5.15;1.80;;;19.10;99.90;;;;;;5151813;27;20031;-63
2022/10/27 12:19:33;;;;;;;6.03;2.35;;;19.10;99.90;;;;;;5149472;27;20038;-63
2022/10/27 12:22:26;;;;;;;5.10;1.92;;;19.10;99.90;;;;;;5146529;27;20035;-62
2022/10/27 12:25:03;;;;;;;6.43;1.80;;;19.10;99.90;;;;;;5113921;27;20084;-62
2022/10/27 12:27:57;;;;;;;4.30;1.95;;;19.10;99.90;;;;;;5156115;27;20263;-62
2022/10/27 12:30:24;;;;;;;4.73;2.13;;;19.20;99.90;;;;;;5147654;27;20139;-63
2022/10/27 12:33:04;;;;;;;5.72;1.77;;;19.20;99.90;;;;;;5155806;27;20064;-64
2022/10/27 12:36:02;;;;;;;8.25;2.22;;;19.30;99.90;;;;;;5155509;27;20034;-62
2022/10/27 12:38:46;;;;;;;5.47;2.00;;;19.40;99.90;;;;;;5145420;27;20032;-63
2022/10/27 12:41:32;;;;;;;7.03;2.03;;;19.50;99.90;;;;;;5148626;27;20043;-63
2022/10/27 12:44:32;;;;;;;6.82;1.92;;;19.50;99.90;;;;;;5149543;27;20035;-63
2022/10/27 12:47:32;;;;;;;5.40;2.10;;;19.60;99.90;;;;;;5116598;27;20050;-63
2022/10/27 12:50:06;;;;;;;6.70;2.10;;;19.70;99.90;;;;;;5130114;27;20039;-63
2022/10/27 12:52:40;;;;;;;4.25;1.80;;;19.80;99.90;;;;;;5148649;27;20418;-63
2022/10/27 12:55:35;;;;;;;5.85;1.80;;;19.90;99.90;;;;;;5154855;27;20534;-63
2022/10/27 12:58:46;;;;;;;6.07;2.10;;;20.00;99.90;;;;;;5153194;27;20039;-63
2022/10/27 13:01:45;;;;;;;6.82;2.50;;;20.10;99.90;;;;;;5104214;27;20537;-63